sensor_id;sensor_type;location;lat;lon;timestamp;pressure;altitude;pressure_sealevel;temperature;humidity
61384;BME280;63511;49.346;8.798;2023-04-01T00:02:22;98741.69;;;12.22;72.25
61384;BME280;63511;49.346;8.798;2023-04-01T00:04:48;98743.44;;;12.24;72.70
61384;BME280;63511;49.346;8.798;2023-04-01T00:07:15;98744.22;;;12.22;71.89
61384;BME280;63511;49.346;8.798;2023-04-01T00:09:41;98737.50;;;12.24;72.17
61384;BME280;63511;49.346;8.798;2023-04-01T00:12:07;98742.72;;;12.28;71.66
61384;BME280;63511;49.346;8.798;2023-04-01T00:14:35;98745.16;;;12.25;71.70
61384;BME280;63511;49.346;8.798;2023-04-01T00:17:02;98734.81;;;12.19;72.27
61384;BME280;63511;49.346;8.798;2023-04-01T00:19:28;98734.19;;;12.25;72.18
61384;BME280;63511;49.346;8.798;2023-04-01T00:21:55;98735.78;;;12.23;72.04
61384;BME280;63511;49.346;8.798;2023-04-01T00:24:22;98734.66;;;12.15;72.34
61384;BME280;63511;49.346;8.798;2023-04-01T00:26:48;98736.50;;;12.19;72.27
61384;BME280;63511;49.346;8.798;2023-04-01T00:29:15;98729.97;;;12.25;71.74
61384;BME280;63511;49.346;8.798;2023-04-01T00:31:42;98725.00;;;12.28;72.29
61384;BME280;63511;49.346;8.798;2023-04-01T00:34:09;98737.53;;;12.00;72.07
61384;BME280;63511;49.346;8.798;2023-04-01T00:36:35;98740.03;;;12.24;71.38
61384;BME280;63511;49.346;8.798;2023-04-01T00:39:02;98743.78;;;12.10;71.92
61384;BME280;63511;49.346;8.798;2023-04-01T00:41:28;98747.31;;;12.15;72.38
61384;BME280;63511;49.346;8.798;2023-04-01T00:46:35;98740.91;;;12.24;72.22
61384;BME280;63511;49.346;8.798;2023-04-01T00:49:03;98746.63;;;12.19;71.60
61384;BME280;63511;49.346;8.798;2023-04-01T00:51:30;98749.75;;;12.12;72.77
61384;BME280;63511;49.346;8.798;2023-04-01T00:53:57;98746.38;;;12.11;72.96
61384;BME280;63511;49.346;8.798;2023-04-01T00:56:27;98742.75;;;12.05;72.77
61384;BME280;63511;49.346;8.798;2023-04-01T00:58:57;98742.41;;;12.19;72.11
61384;BME280;63511;49.346;8.798;2023-04-01T01:01:25;98741.72;;;12.00;72.87
61384;BME280;63511;49.346;8.798;2023-04-01T01:03:51;98748.59;;;12.04;72.94
61384;BME280;63511;49.346;8.798;2023-04-01T01:06:26;98742.81;;;12.06;73.21
61384;BME280;63511;49.346;8.798;2023-04-01T01:11:45;98737.09;;;12.12;72.91
61384;BME280;63511;49.346;8.798;2023-04-01T01:14:18;98738.00;;;12.14;72.63
61384;BME280;63511;49.346;8.798;2023-04-01T01:16:50;98728.38;;;12.27;72.58
61384;BME280;63511;49.346;8.798;2023-04-01T01:19:26;98722.44;;;12.03;72.68
61384;BME280;63511;49.346;8.798;2023-04-01T01:24:51;98723.69;;;12.14;72.72
61384;BME280;63511;49.346;8.798;2023-04-01T01:27:20;98718.13;;;12.24;72.36
61384;BME280;63511;49.346;8.798;2023-04-01T01:29:55;98725.84;;;12.04;72.78
61384;BME280;63511;49.346;8.798;2023-04-01T01:32:36;98720.59;;;12.23;73.01
61384;BME280;63511;49.346;8.798;2023-04-01T01:35:15;98724.41;;;12.10;73.24
61384;BME280;63511;49.346;8.798;2023-04-01T01:37:42;98717.91;;;12.18;72.88
61384;BME280;63511;49.346;8.798;2023-04-01T01:40:11;98718.41;;;12.08;72.72
61384;BME280;63511;49.346;8.798;2023-04-01T01:42:38;98714.81;;;12.02;72.99
61384;BME280;63511;49.346;8.798;2023-04-01T01:45:06;98707.78;;;12.18;71.69
61384;BME280;63511;49.346;8.798;2023-04-01T01:47:34;98695.50;;;12.29;72.41
61384;BME280;63511;49.346;8.798;2023-04-01T01:50:02;98701.72;;;12.37;71.58
61384;BME280;63511;49.346;8.798;2023-04-01T01:52:31;98701.28;;;12.25;72.13
61384;BME280;63511;49.346;8.798;2023-04-01T01:54:57;98703.91;;;12.28;71.89
61384;BME280;63511;49.346;8.798;2023-04-01T01:57:24;98710.78;;;12.07;72.35
61384;BME280;63511;49.346;8.798;2023-04-01T01:59:52;98710.16;;;12.14;72.13
61384;BME280;63511;49.346;8.798;2023-04-01T02:02:21;98706.41;;;12.03;72.37
61384;BME280;63511;49.346;8.798;2023-04-01T02:04:48;98704.63;;;12.24;71.58
61384;BME280;63511;49.346;8.798;2023-04-01T02:07:16;98708.06;;;12.26;71.56
61384;BME280;63511;49.346;8.798;2023-04-01T02:09:45;98703.56;;;12.17;71.55
61384;BME280;63511;49.346;8.798;2023-04-01T02:12:12;98709.75;;;12.25;71.62
61384;BME280;63511;49.346;8.798;2023-04-01T02:14:41;98700.34;;;12.23;72.02
61384;BME280;63511;49.346;8.798;2023-04-01T02:17:10;98706.13;;;12.19;71.13
61384;BME280;63511;49.346;8.798;2023-04-01T02:19:38;98700.78;;;12.35;70.82
61384;BME280;63511;49.346;8.798;2023-04-01T02:22:06;98710.22;;;12.15;71.69
61384;BME280;63511;49.346;8.798;2023-04-01T02:24:35;98702.50;;;12.36;70.68
61384;BME280;63511;49.346;8.798;2023-04-01T02:27:03;98704.00;;;12.06;71.08
61384;BME280;63511;49.346;8.798;2023-04-01T02:29:30;98704.88;;;12.31;70.06
61384;BME280;63511;49.346;8.798;2023-04-01T02:31:56;98704.81;;;12.30;70.08
61384;BME280;63511;49.346;8.798;2023-04-01T02:34:23;98706.56;;;12.31;69.44
61384;BME280;63511;49.346;8.798;2023-04-01T02:36:50;98703.09;;;12.54;69.17
61384;BME280;63511;49.346;8.798;2023-04-01T02:39:18;98696.06;;;12.46;68.98
61384;BME280;63511;49.346;8.798;2023-04-01T02:41:45;98696.84;;;12.68;68.31
61384;BME280;63511;49.346;8.798;2023-04-01T02:44:13;98703.59;;;12.43;69.41
61384;BME280;63511;49.346;8.798;2023-04-01T02:46:40;98698.91;;;12.29;69.99
61384;BME280;63511;49.346;8.798;2023-04-01T02:49:07;98704.88;;;12.31;70.06
61384;BME280;63511;49.346;8.798;2023-04-01T02:51:33;98701.44;;;12.29;71.18
61384;BME280;63511;49.346;8.798;2023-04-01T02:54:00;98696.31;;;12.28;71.15
61384;BME280;63511;49.346;8.798;2023-04-01T02:56:26;98695.78;;;12.37;71.17
61384;BME280;63511;49.346;8.798;2023-04-01T02:58:53;98698.97;;;12.31;71.06
61384;BME280;63511;49.346;8.798;2023-04-01T03:01:21;98698.75;;;12.25;71.75
61384;BME280;63511;49.346;8.798;2023-04-01T03:03:48;98700.19;;;12.18;72.29
61384;BME280;63511;49.346;8.798;2023-04-01T03:06:15;98695.91;;;12.16;72.63
61384;BME280;63511;49.346;8.798;2023-04-01T03:08:42;98698.22;;;12.10;73.04
61384;BME280;63511;49.346;8.798;2023-04-01T03:11:09;98698.53;;;12.19;73.58
61384;BME280;63511;49.346;8.798;2023-04-01T03:13:35;98699.72;;;12.28;73.48
61384;BME280;63511;49.346;8.798;2023-04-01T03:16:02;98700.53;;;12.04;73.70
61384;BME280;63511;49.346;8.798;2023-04-01T03:18:29;98701.34;;;12.03;73.14
61384;BME280;63511;49.346;8.798;2023-04-01T03:20:56;98698.56;;;11.95;72.86
61384;BME280;63511;49.346;8.798;2023-04-01T03:23:22;98702.44;;;11.85;72.93
61384;BME280;63511;49.346;8.798;2023-04-01T03:25:49;98697.13;;;12.02;73.30
61384;BME280;63511;49.346;8.798;2023-04-01T03:28:15;98701.03;;;11.93;72.71
61384;BME280;63511;49.346;8.798;2023-04-01T03:30:42;98707.41;;;12.06;72.12
61384;BME280;63511;49.346;8.798;2023-04-01T03:33:08;98707.59;;;11.88;72.04
61384;BME280;63511;49.346;8.798;2023-04-01T03:35:36;98708.34;;;11.86;72.52
61384;BME280;63511;49.346;8.798;2023-04-01T03:38:02;98715.94;;;11.86;72.36
61384;BME280;63511;49.346;8.798;2023-04-01T03:40:29;98714.47;;;11.92;72.10
61384;BME280;63511;49.346;8.798;2023-04-01T03:42:55;98718.72;;;11.71;72.53
61384;BME280;63511;49.346;8.798;2023-04-01T03:45:22;98710.88;;;11.64;72.81
61384;BME280;63511;49.346;8.798;2023-04-01T03:47:48;98711.75;;;11.64;73.03
61384;BME280;63511;49.346;8.798;2023-04-01T03:50:14;98712.09;;;11.73;71.67
61384;BME280;63511;49.346;8.798;2023-04-01T03:52:42;98709.06;;;12.06;71.20
61384;BME280;63511;49.346;8.798;2023-04-01T03:55:09;98718.88;;;11.74;72.07
61384;BME280;63511;49.346;8.798;2023-04-01T03:57:35;98712.97;;;11.98;71.47
61384;BME280;63511;49.346;8.798;2023-04-01T04:00:02;98722.66;;;11.63;72.78
61384;BME280;63511;49.346;8.798;2023-04-01T04:02:28;98714.50;;;11.70;72.48
61384;BME280;63511;49.346;8.798;2023-04-01T04:04:54;98720.03;;;11.60;72.87
61384;BME280;63511;49.346;8.798;2023-04-01T04:07:21;98714.13;;;11.61;73.15
61384;BME280;63511;49.346;8.798;2023-04-01T04:09:49;98709.91;;;11.60;73.19
61384;BME280;63511;49.346;8.798;2023-04-01T04:12:15;98716.09;;;11.68;73.03
61384;BME280;63511;49.346;8.798;2023-04-01T04:14:43;98720.56;;;11.74;73.51
61384;BME280;63511;49.346;8.798;2023-04-01T04:17:10;98710.91;;;11.86;73.03
61384;BME280;63511;49.346;8.798;2023-04-01T04:19:41;98730.66;;;11.74;72.63
61384;BME280;63511;49.346;8.798;2023-04-01T04:22:07;98726.19;;;11.44;74.54
61384;BME280;63511;49.346;8.798;2023-04-01T04:24:34;98729.03;;;11.54;74.33
61384;BME280;63511;49.346;8.798;2023-04-01T04:27:01;98713.00;;;11.53;74.18
61384;BME280;63511;49.346;8.798;2023-04-01T04:29:28;98725.06;;;11.38;75.18
61384;BME280;63511;49.346;8.798;2023-04-01T04:31:54;98718.88;;;11.52;75.00
61384;BME280;63511;49.346;8.798;2023-04-01T04:34:20;98718.84;;;11.30;75.78
61384;BME280;63511;49.346;8.798;2023-04-01T04:36:47;98716.94;;;11.45;75.53
61384;BME280;63511;49.346;8.798;2023-04-01T04:39:14;98716.09;;;11.46;75.41
61384;BME280;63511;49.346;8.798;2023-04-01T04:41:41;98713.19;;;11.58;74.89
61384;BME280;63511;49.346;8.798;2023-04-01T04:44:08;98711.13;;;11.47;75.69
61384;BME280;63511;49.346;8.798;2023-04-01T04:46:35;98720.72;;;11.34;75.70
61384;BME280;63511;49.346;8.798;2023-04-01T04:49:02;98707.41;;;11.62;74.75
61384;BME280;63511;49.346;8.798;2023-04-01T04:51:29;98706.59;;;11.39;75.31
61384;BME280;63511;49.346;8.798;2023-04-01T04:53:55;98695.22;;;11.50;75.16
61384;BME280;63511;49.346;8.798;2023-04-01T04:56:22;98698.81;;;11.57;74.89
61384;BME280;63511;49.346;8.798;2023-04-01T04:58:50;98697.97;;;11.34;75.32
61384;BME280;63511;49.346;8.798;2023-04-01T05:01:18;98691.13;;;11.54;74.66
61384;BME280;63511;49.346;8.798;2023-04-01T05:03:44;98687.91;;;11.35;74.83
61384;BME280;63511;49.346;8.798;2023-04-01T05:06:11;98694.91;;;11.65;73.54
61384;BME280;63511;49.346;8.798;2023-04-01T05:08:38;98686.63;;;11.69;73.55
61384;BME280;63511;49.346;8.798;2023-04-01T05:11:06;98681.34;;;11.40;74.63
61384;BME280;63511;49.346;8.798;2023-04-01T05:13:34;98685.38;;;11.58;73.57
61384;BME280;63511;49.346;8.798;2023-04-01T05:16:01;98688.66;;;11.77;72.64
61384;BME280;63511;49.346;8.798;2023-04-01T05:18:28;98683.53;;;11.54;72.65
61384;BME280;63511;49.346;8.798;2023-04-01T05:20:55;98688.06;;;11.62;72.88
61384;BME280;63511;49.346;8.798;2023-04-01T05:23:21;98682.03;;;11.81;72.05
61384;BME280;63511;49.346;8.798;2023-04-01T05:25:48;98677.09;;;11.84;72.24
61384;BME280;63511;49.346;8.798;2023-04-01T05:28:15;98677.31;;;11.90;71.76
61384;BME280;63511;49.346;8.798;2023-04-01T05:30:41;98682.47;;;11.93;71.49
61384;BME280;63511;49.346;8.798;2023-04-01T05:33:07;98675.19;;;11.78;71.21
61384;BME280;63511;49.346;8.798;2023-04-01T05:35:35;98680.47;;;11.84;71.39
61384;BME280;63511;49.346;8.798;2023-04-01T05:38:02;98679.63;;;11.84;71.43
61384;BME280;63511;49.346;8.798;2023-04-01T05:40:28;98686.56;;;11.89;71.40
61384;BME280;63511;49.346;8.798;2023-04-01T05:42:55;98674.38;;;12.03;71.47
61384;BME280;63511;49.346;8.798;2023-04-01T05:45:21;98671.19;;;12.09;70.59
61384;BME280;63511;49.346;8.798;2023-04-01T05:47:48;98671.22;;;11.85;71.19
61384;BME280;63511;49.346;8.798;2023-04-01T05:50:14;98677.66;;;11.77;71.52
61384;BME280;63511;49.346;8.798;2023-04-01T05:52:42;98666.38;;;11.91;71.33
61384;BME280;63511;49.346;8.798;2023-04-01T05:55:09;98660.84;;;12.01;71.19
61384;BME280;63511;49.346;8.798;2023-04-01T05:57:35;98666.06;;;12.06;70.86
61384;BME280;63511;49.346;8.798;2023-04-01T06:00:02;98664.41;;;12.08;70.90
61384;BME280;63511;49.346;8.798;2023-04-01T06:02:29;98662.41;;;12.23;71.20
61384;BME280;63511;49.346;8.798;2023-04-01T06:04:59;98664.53;;;12.11;71.24
61384;BME280;63511;49.346;8.798;2023-04-01T06:07:28;98662.50;;;12.01;70.68
61384;BME280;63511;49.346;8.798;2023-04-01T06:09:56;98662.06;;;11.88;71.12
61384;BME280;63511;49.346;8.798;2023-04-01T06:12:31;98658.75;;;12.15;71.28
61384;BME280;63511;49.346;8.798;2023-04-01T06:15:06;98672.13;;;11.87;72.63
61384;BME280;63511;49.346;8.798;2023-04-01T06:17:41;98660.22;;;12.08;71.85
61384;BME280;63511;49.346;8.798;2023-04-01T06:20:12;98661.69;;;12.02;71.33
61384;BME280;63511;49.346;8.798;2023-04-01T06:22:50;98653.06;;;12.20;71.26
61384;BME280;63511;49.346;8.798;2023-04-01T06:25:29;98665.19;;;12.05;72.26
61384;BME280;63511;49.346;8.798;2023-04-01T06:28:10;98663.56;;;11.83;71.61
61384;BME280;63511;49.346;8.798;2023-04-01T06:30:42;98675.00;;;11.96;72.12
61384;BME280;63511;49.346;8.798;2023-04-01T06:35:57;98682.44;;;11.91;73.00
61384;BME280;63511;49.346;8.798;2023-04-01T06:38:32;98678.75;;;11.83;73.06
61384;BME280;63511;49.346;8.798;2023-04-01T06:41:08;98678.66;;;11.58;74.30
61384;BME280;63511;49.346;8.798;2023-04-01T06:43:42;98695.53;;;11.59;74.43
61384;BME280;63511;49.346;8.798;2023-04-01T06:46:14;98691.66;;;11.45;75.02
61384;BME280;63511;49.346;8.798;2023-04-01T06:48:48;98685.81;;;11.70;75.29
61384;BME280;63511;49.346;8.798;2023-04-01T06:51:21;98691.44;;;11.39;75.55
61384;BME280;63511;49.346;8.798;2023-04-01T06:53:51;98692.22;;;11.38;77.02
61384;BME280;63511;49.346;8.798;2023-04-01T06:56:22;98688.13;;;11.41;76.71
61384;BME280;63511;49.346;8.798;2023-04-01T06:58:51;98683.44;;;11.28;77.65
61384;BME280;63511;49.346;8.798;2023-04-01T07:01:20;98696.97;;;11.30;77.42
61384;BME280;63511;49.346;8.798;2023-04-01T07:03:49;98687.69;;;11.29;77.70
61384;BME280;63511;49.346;8.798;2023-04-01T07:06:19;98684.34;;;11.30;77.63
61384;BME280;63511;49.346;8.798;2023-04-01T07:08:49;98677.63;;;11.31;77.38
61384;BME280;63511;49.346;8.798;2023-04-01T07:11:20;98682.50;;;11.26;77.79
61384;BME280;63511;49.346;8.798;2023-04-01T07:13:51;98678.78;;;11.39;77.06
61384;BME280;63511;49.346;8.798;2023-04-01T07:16:19;98673.09;;;11.44;77.25
61384;BME280;63511;49.346;8.798;2023-04-01T07:18:48;98678.88;;;11.20;78.34
61384;BME280;63511;49.346;8.798;2023-04-01T07:21:26;98689.16;;;11.46;77.16
61384;BME280;63511;49.346;8.798;2023-04-01T07:23:53;98679.09;;;11.24;77.86
61384;BME280;63511;49.346;8.798;2023-04-01T07:26:23;98673.59;;;11.36;77.74
61384;BME280;63511;49.346;8.798;2023-04-01T07:28:52;98675.78;;;11.27;77.82
61384;BME280;63511;49.346;8.798;2023-04-01T07:31:21;98683.03;;;11.18;78.59
61384;BME280;63511;49.346;8.798;2023-04-01T07:33:55;98675.72;;;11.25;78.23
61384;BME280;63511;49.346;8.798;2023-04-01T07:36:25;98670.38;;;11.40;78.21
61384;BME280;63511;49.346;8.798;2023-04-01T07:38:58;98681.53;;;11.23;78.71
61384;BME280;63511;49.346;8.798;2023-04-01T07:41:29;98690.81;;;11.46;78.50
61384;BME280;63511;49.346;8.798;2023-04-01T07:44:02;98693.41;;;11.47;78.65
61384;BME280;63511;49.346;8.798;2023-04-01T07:46:38;98690.59;;;11.40;78.39
61384;BME280;63511;49.346;8.798;2023-04-01T07:49:10;98691.25;;;11.34;79.13
61384;BME280;63511;49.346;8.798;2023-04-01T07:51:40;98697.38;;;11.41;79.30
61384;BME280;63511;49.346;8.798;2023-04-01T07:54:10;98691.13;;;11.31;79.17
61384;BME280;63511;49.346;8.798;2023-04-01T07:56:40;98697.56;;;11.23;79.79
61384;BME280;63511;49.346;8.798;2023-04-01T07:59:11;98688.06;;;11.62;78.88
61384;BME280;63511;49.346;8.798;2023-04-01T08:01:41;98691.59;;;11.43;79.64
61384;BME280;63511;49.346;8.798;2023-04-01T08:04:15;98689.69;;;11.38;79.56
61384;BME280;63511;49.346;8.798;2023-04-01T08:06:45;98698.25;;;11.41;79.68
61384;BME280;63511;49.346;8.798;2023-04-01T08:09:17;98697.78;;;11.51;78.73
61384;BME280;63511;49.346;8.798;2023-04-01T08:11:49;98693.59;;;11.52;79.92
61384;BME280;63511;49.346;8.798;2023-04-01T08:14:21;98695.22;;;11.50;80.20
61384;BME280;63511;49.346;8.798;2023-04-01T08:16:52;98696.72;;;11.45;80.10
61384;BME280;63511;49.346;8.798;2023-04-01T08:19:25;98693.31;;;11.44;80.27
61384;BME280;63511;49.346;8.798;2023-04-01T08:21:57;98694.97;;;11.22;80.15
61384;BME280;63511;49.346;8.798;2023-04-01T08:24:25;98698.88;;;11.36;80.40
61384;BME280;63511;49.346;8.798;2023-04-01T08:26:53;98702.56;;;11.44;80.77
61384;BME280;63511;49.346;8.798;2023-04-01T08:29:23;98707.56;;;11.42;80.08
61384;BME280;63511;49.346;8.798;2023-04-01T08:31:53;98701.88;;;11.48;80.42
61384;BME280;63511;49.346;8.798;2023-04-01T08:34:21;98710.66;;;11.58;80.45
61384;BME280;63511;49.346;8.798;2023-04-01T08:36:49;98711.44;;;11.57;80.08
61384;BME280;63511;49.346;8.798;2023-04-01T08:39:20;98701.16;;;11.52;81.40
61384;BME280;63511;49.346;8.798;2023-04-01T08:44:57;98715.53;;;11.53;80.95
61384;BME280;63511;49.346;8.798;2023-04-01T08:47:31;98702.41;;;11.39;82.04
61384;BME280;63511;49.346;8.798;2023-04-01T08:50:08;98714.63;;;11.29;83.25
61384;BME280;63511;49.346;8.798;2023-04-01T08:52:46;98709.28;;;11.43;83.70
61384;BME280;63511;49.346;8.798;2023-04-01T08:55:27;98718.19;;;11.34;83.41
61384;BME280;63511;49.346;8.798;2023-04-01T08:58:07;98704.31;;;11.46;83.01
61384;BME280;63511;49.346;8.798;2023-04-01T09:00:41;98715.44;;;11.28;84.71
61384;BME280;63511;49.346;8.798;2023-04-01T09:08:38;98718.06;;;11.31;85.54
61384;BME280;63511;49.346;8.798;2023-04-01T09:11:12;98726.56;;;11.33;85.80
61384;BME280;63511;49.346;8.798;2023-04-01T09:19:14;98726.94;;;11.21;86.88
61384;BME280;63511;49.346;8.798;2023-04-01T09:21:46;98722.66;;;11.63;84.89
61384;BME280;63511;49.346;8.798;2023-04-01T09:24:23;98731.41;;;11.49;85.18
61384;BME280;63511;49.346;8.798;2023-04-01T09:27:05;98722.41;;;11.35;85.49
61384;BME280;63511;49.346;8.798;2023-04-01T09:29:48;98724.84;;;11.54;84.58
61384;BME280;63511;49.346;8.798;2023-04-01T09:35:03;98724.44;;;11.66;83.99
61384;BME280;63511;49.346;8.798;2023-04-01T09:37:40;98729.25;;;11.82;82.97
61384;BME280;63511;49.346;8.798;2023-04-01T09:40:16;98730.31;;;11.65;83.49
61384;BME280;63511;49.346;8.798;2023-04-01T09:42:51;98721.59;;;11.79;82.55
61384;BME280;63511;49.346;8.798;2023-04-01T09:48:09;98742.53;;;11.76;83.68
61384;BME280;63511;49.346;8.798;2023-04-01T09:50:45;98745.50;;;11.66;83.93
61384;BME280;63511;49.346;8.798;2023-04-01T09:53:18;98741.59;;;11.73;83.54
61384;BME280;63511;49.346;8.798;2023-04-01T09:56:00;98742.88;;;11.63;84.22
61384;BME280;63511;49.346;8.798;2023-04-01T09:58:33;98740.41;;;11.65;85.55
61384;BME280;63511;49.346;8.798;2023-04-01T10:18:13;98738.25;;;11.74;84.37
61384;BME280;63511;49.346;8.798;2023-04-01T10:20:55;98743.88;;;11.89;83.34
61384;BME280;63511;49.346;8.798;2023-04-01T10:23:42;98754.41;;;11.77;84.07
61384;BME280;63511;49.346;8.798;2023-04-01T10:26:23;98750.50;;;11.85;83.16
61384;BME280;63511;49.346;8.798;2023-04-01T10:29:15;98754.16;;;11.93;82.74
61384;BME280;63511;49.346;8.798;2023-04-01T10:31:53;98754.38;;;12.00;82.23
61384;BME280;63511;49.346;8.798;2023-04-01T10:37:15;98744.50;;;12.07;81.95
61384;BME280;63511;49.346;8.798;2023-04-01T10:39:54;98748.28;;;11.95;83.11
61384;BME280;63511;49.346;8.798;2023-04-01T10:42:30;98748.94;;;11.89;82.93
61384;BME280;63511;49.346;8.798;2023-04-01T10:45:13;98741.88;;;12.04;83.30
61384;BME280;63511;49.346;8.798;2023-04-01T10:50:35;98747.53;;;12.21;83.50
61384;BME280;63511;49.346;8.798;2023-04-01T11:01:48;98748.75;;;12.07;83.14
61384;BME280;63511;49.346;8.798;2023-04-01T11:07:17;98752.13;;;12.31;83.14
61384;BME280;63511;49.346;8.798;2023-04-01T11:10:12;98740.53;;;12.38;82.51
61384;BME280;63511;49.346;8.798;2023-04-01T11:12:52;98743.09;;;12.39;82.32
61384;BME280;63511;49.346;8.798;2023-04-01T11:15:35;98751.72;;;12.44;83.24
61384;BME280;63511;49.346;8.798;2023-04-01T11:21:23;98749.75;;;12.35;82.65
61384;BME280;63511;49.346;8.798;2023-04-01T11:23:58;98758.78;;;12.29;83.73
61384;BME280;63511;49.346;8.798;2023-04-01T11:26:33;98758.94;;;12.10;84.01
61384;BME280;63511;49.346;8.798;2023-04-01T11:31:45;98753.66;;;12.51;82.45
61384;BME280;63511;49.346;8.798;2023-04-01T11:34:20;98765.16;;;12.42;82.78
61384;BME280;63511;49.346;8.798;2023-04-01T11:36:55;98771.22;;;12.23;83.50
61384;BME280;63511;49.346;8.798;2023-04-01T11:39:27;98763.38;;;12.64;82.02
61384;BME280;63511;49.346;8.798;2023-04-01T11:42:01;98761.94;;;12.22;83.37
61384;BME280;63511;49.346;8.798;2023-04-01T11:44:29;98770.75;;;12.33;83.21
61384;BME280;63511;49.346;8.798;2023-04-01T11:47:07;98769.25;;;12.38;84.14
61384;BME280;63511;49.346;8.798;2023-04-01T11:49:40;98766.00;;;12.42;83.20
61384;BME280;63511;49.346;8.798;2023-04-01T11:52:13;98769.06;;;12.10;83.95
61384;BME280;63511;49.346;8.798;2023-04-01T11:54:48;98778.94;;;12.26;85.45
61384;BME280;63511;49.346;8.798;2023-04-01T11:57:27;98777.22;;;12.25;84.44
61384;BME280;63511;49.346;8.798;2023-04-01T12:02:46;98788.13;;;12.00;85.74
61384;BME280;63511;49.346;8.798;2023-04-01T12:05:28;98781.00;;;12.12;86.07
61384;BME280;63511;49.346;8.798;2023-04-01T12:08:11;98794.00;;;12.23;86.78
61384;BME280;63511;49.346;8.798;2023-04-01T12:10:43;98791.31;;;12.18;87.45
61384;BME280;63511;49.346;8.798;2023-04-01T12:13:16;98790.72;;;12.25;87.23
61384;BME280;63511;49.346;8.798;2023-04-01T12:15:54;98791.84;;;12.10;86.34
61384;BME280;63511;49.346;8.798;2023-04-01T12:18:24;98806.31;;;12.14;86.67
61384;BME280;63511;49.346;8.798;2023-04-01T12:20:54;98795.34;;;12.13;86.60
61384;BME280;63511;49.346;8.798;2023-04-01T12:23:39;98802.13;;;12.14;86.54
61384;BME280;63511;49.346;8.798;2023-04-01T12:28:59;98809.88;;;11.95;87.01
61384;BME280;63511;49.346;8.798;2023-04-01T12:31:32;98796.59;;;12.24;86.40
61384;BME280;63511;49.346;8.798;2023-04-01T12:36:50;98795.41;;;12.15;86.57
61384;BME280;63511;49.346;8.798;2023-04-01T12:39:26;98802.13;;;12.14;86.75
61384;BME280;63511;49.346;8.798;2023-04-01T12:41:59;98798.72;;;12.14;87.74
61384;BME280;63511;49.346;8.798;2023-04-01T12:44:37;98792.19;;;12.43;86.81
61384;BME280;63511;49.346;8.798;2023-04-01T12:50:09;98800.13;;;12.29;85.50
61384;BME280;63511;49.346;8.798;2023-04-01T12:52:50;98803.44;;;12.27;85.29
61384;BME280;63511;49.346;8.798;2023-04-01T12:55:27;98808.16;;;12.18;86.09
61384;BME280;63511;49.346;8.798;2023-04-01T13:00:51;98806.53;;;12.44;86.68
61384;BME280;63511;49.346;8.798;2023-04-01T13:03:29;98797.59;;;12.29;87.51
61384;BME280;63511;49.346;8.798;2023-04-01T13:08:42;98816.69;;;11.98;88.99
61384;BME280;63511;49.346;8.798;2023-04-01T13:11:17;98815.72;;;12.16;87.50
61384;BME280;63511;49.346;8.798;2023-04-01T13:16:45;98819.38;;;12.24;86.42
61384;BME280;63511;49.346;8.798;2023-04-01T13:19:17;98819.53;;;12.29;85.88
61384;BME280;63511;49.346;8.798;2023-04-01T13:21:49;98825.84;;;12.40;85.85
61384;BME280;63511;49.346;8.798;2023-04-01T13:27:14;98825.50;;;12.55;84.10
61384;BME280;63511;49.346;8.798;2023-04-01T13:29:43;98827.50;;;12.63;84.05
61384;BME280;63511;49.346;8.798;2023-04-01T13:32:23;98829.78;;;12.56;83.72
61384;BME280;63511;49.346;8.798;2023-04-01T13:34:59;98834.47;;;12.69;83.00
61384;BME280;63511;49.346;8.798;2023-04-01T13:37:32;98827.47;;;12.62;82.18
61384;BME280;63511;49.346;8.798;2023-04-01T13:40:02;98828.63;;;12.71;82.45
61384;BME280;63511;49.346;8.798;2023-04-01T13:42:41;98832.22;;;12.53;81.41
61384;BME280;63511;49.346;8.798;2023-04-01T13:45:11;98827.59;;;12.66;81.08
61384;BME280;63511;49.346;8.798;2023-04-01T13:47:52;98830.59;;;12.80;80.75
61384;BME280;63511;49.346;8.798;2023-04-01T13:50:30;98830.88;;;12.88;80.38
61384;BME280;63511;49.346;8.798;2023-04-01T13:53:03;98838.88;;;12.51;81.90
61384;BME280;63511;49.346;8.798;2023-04-01T13:55:49;98845.38;;;12.44;82.19
61384;BME280;63511;49.346;8.798;2023-04-01T13:58:27;98847.66;;;12.84;80.08
61384;BME280;63511;49.346;8.798;2023-04-01T14:01:00;98848.03;;;12.71;80.34
61384;BME280;63511;49.346;8.798;2023-04-01T14:03:32;98843.22;;;12.55;80.93
61384;BME280;63511;49.346;8.798;2023-04-01T14:06:12;98855.69;;;12.72;80.63
61384;BME280;63511;49.346;8.798;2023-04-01T14:08:57;98853.94;;;12.71;80.68
61384;BME280;63511;49.346;8.798;2023-04-01T14:11:27;98858.16;;;12.71;80.80
61384;BME280;63511;49.346;8.798;2023-04-01T14:14:01;98851.19;;;12.65;80.66
61384;BME280;63511;49.346;8.798;2023-04-01T14:16:35;98845.81;;;12.56;80.65
61384;BME280;63511;49.346;8.798;2023-04-01T14:19:09;98844.31;;;12.61;80.54
61384;BME280;63511;49.346;8.798;2023-04-01T14:21:43;98850.63;;;12.72;80.19
61384;BME280;63511;49.346;8.798;2023-04-01T14:27:04;98855.91;;;12.78;79.79
61384;BME280;63511;49.346;8.798;2023-04-01T14:29:37;98854.78;;;12.96;79.00
61384;BME280;63511;49.346;8.798;2023-04-01T14:32:11;98854.91;;;12.99;78.49
61384;BME280;63511;49.346;8.798;2023-04-01T14:37:33;98857.94;;;12.65;78.83
61384;BME280;63511;49.346;8.798;2023-04-01T14:40:14;98857.06;;;12.64;78.95
61384;BME280;63511;49.346;8.798;2023-04-01T14:43:08;98865.16;;;12.78;78.49
61384;BME280;63511;49.346;8.798;2023-04-01T14:45:51;98866.19;;;12.59;78.12
61384;BME280;63511;49.346;8.798;2023-04-01T14:48:25;98865.50;;;12.63;78.32
61384;BME280;63511;49.346;8.798;2023-04-01T14:50:55;98874.38;;;12.76;77.98
61384;BME280;63511;49.346;8.798;2023-04-01T14:53:26;98873.41;;;12.72;78.40
61384;BME280;63511;49.346;8.798;2023-04-01T14:55:54;98872.88;;;12.81;77.89
61384;BME280;63511;49.346;8.798;2023-04-01T14:58:21;98877.72;;;12.75;77.92
61384;BME280;63511;49.346;8.798;2023-04-01T15:00:55;98873.44;;;12.98;77.13